createdAt,value
2016-06-12T00:00:33.467Z,0
2016-06-12T00:01:33.454Z,0
2016-06-12T00:02:33.442Z,0
2016-06-12T00:03:33.413Z,0
2016-06-12T00:04:34.635Z,0
2016-06-12T00:05:33.373Z,0
2016-06-12T00:06:33.345Z,0
2016-06-12T00:07:33.333Z,0
2016-06-12T00:08:33.189Z,0
2016-06-12T00:09:33.356Z,0
2016-06-12T00:10:33.381Z,0
2016-06-12T00:11:33.250Z,0
2016-06-12T00:12:33.416Z,0
2016-06-12T00:13:33.426Z,0
2016-06-12T00:14:33.285Z,0
2016-06-12T00:15:33.428Z,0
2016-06-12T00:16:33.257Z,0
2016-06-12T00:17:33.399Z,0
2016-06-12T00:18:33.394Z,0
2016-06-12T00:19:33.965Z,0
2016-06-12T00:20:33.988Z,0
2016-06-12T00:21:33.371Z,0
2016-06-12T00:22:33.333Z,0
2016-06-12T00:23:33.323Z,0
2016-06-12T00:24:33.312Z,0
2016-06-12T00:25:33.286Z,0
2016-06-12T00:26:33.275Z,0
2016-06-12T00:27:33.093Z,0
2016-06-12T00:28:33.238Z,0
2016-06-12T00:29:33.226Z,0
2016-06-12T00:30:33.198Z,0
2016-06-12T00:31:38.983Z,0
2016-06-12T00:32:33.173Z,0
2016-06-12T00:33:33.162Z,0
2016-06-12T00:34:33.024Z,0
2016-06-12T00:35:33.496Z,0
2016-06-12T00:36:34.562Z,0
2016-06-12T00:37:33.081Z,0
2016-06-12T00:38:33.053Z,0
2016-06-12T00:39:33.041Z,0
2016-06-12T00:40:33.028Z,0
2016-06-12T00:41:33.000Z,0
2016-06-12T00:42:32.987Z,0
2016-06-12T00:43:32.975Z,0
2016-06-12T00:44:32.947Z,0
2016-06-12T00:45:32.934Z,0
2016-06-12T00:46:32.937Z,0
2016-06-12T00:47:32.893Z,0
2016-06-12T00:48:32.881Z,0
2016-06-12T00:49:33.713Z,0
2016-06-12T00:50:33.137Z,0
2016-06-12T00:51:32.813Z,0
2016-06-12T00:52:32.799Z,0
2016-06-12T00:53:32.772Z,0
2016-06-12T00:54:32.775Z,0
2016-06-12T00:55:32.745Z,0
2016-06-12T00:56:32.718Z,0
2016-06-12T00:57:32.549Z,0
2016-06-12T00:58:32.677Z,0
2016-06-12T00:59:32.665Z,0
2016-06-12T01:00:32.649Z,0
2016-06-12T01:01:32.621Z,0
2016-06-12T01:02:32.624Z,0
2016-06-12T01:03:32.580Z,0
2016-06-12T01:04:32.568Z,0
2016-06-12T01:05:32.570Z,0
2016-06-12T01:06:32.526Z,0
2016-06-12T01:07:32.514Z,0
2016-06-12T01:08:32.518Z,0
2016-06-12T01:09:32.473Z,0
2016-06-12T01:10:32.289Z,0
2016-06-12T01:11:32.433Z,0
2016-06-12T01:12:32.419Z,0
2016-06-12T01:13:32.392Z,0
2016-06-12T01:14:32.380Z,0
2016-06-12T01:15:32.367Z,0
2016-06-12T01:16:32.340Z,0
2016-06-12T01:17:32.326Z,0
2016-06-12T01:18:32.299Z,0
2016-06-12T01:19:32.129Z,0
2016-06-12T01:20:32.476Z,0
2016-06-12T01:21:32.244Z,0
2016-06-12T01:22:32.216Z,0
2016-06-12T01:23:32.204Z,0
2016-06-12T01:24:32.176Z,0
2016-06-12T01:25:32.164Z,0
2016-06-12T01:26:32.151Z,0
2016-06-12T01:27:32.123Z,0
2016-06-12T01:28:32.110Z,0
2016-06-12T01:29:31.941Z,0
2016-06-12T01:30:32.069Z,0
2016-06-12T01:31:32.073Z,0
2016-06-12T01:32:32.028Z,0
2016-06-12T01:33:32.016Z,0
2016-06-12T01:34:31.988Z,0
2016-06-12T01:35:32.335Z,0
2016-06-12T01:36:31.948Z,0
2016-06-12T01:37:31.935Z,0
2016-06-12T01:38:31.922Z,0
2016-06-12T01:39:31.894Z,0
2016-06-12T01:40:31.725Z,0
2016-06-12T01:41:31.854Z,0
2016-06-12T01:42:31.841Z,0
2016-06-12T01:43:31.828Z,0
2016-06-12T01:44:31.800Z,0
2016-06-12T01:45:31.788Z,0
2016-06-12T01:46:31.760Z,0
2016-06-12T01:47:31.746Z,0
2016-06-12T01:48:31.719Z,0
2016-06-12T01:49:31.706Z,0
2016-06-12T01:50:31.912Z,0
2016-06-12T01:51:31.665Z,0
2016-06-12T01:52:31.637Z,0
2016-06-12T01:53:31.625Z,0
2016-06-12T01:54:31.612Z,0
2016-06-12T01:55:31.585Z,0
2016-06-12T01:56:31.571Z,0
2016-06-12T01:57:31.543Z,0
2016-06-12T01:58:31.531Z,0
2016-06-12T01:59:31.518Z,0
2016-06-12T02:00:31.490Z,0
2016-06-12T02:01:31.493Z,0
2016-06-12T02:02:31.449Z,0
2016-06-12T02:03:31.437Z,0
2016-06-12T02:04:31.409Z,0
2016-06-12T02:05:32.240Z,0
2016-06-12T02:06:31.383Z,0
2016-06-12T02:07:31.371Z,0
2016-06-12T02:08:31.342Z,0
2016-06-12T02:09:31.331Z,0
2016-06-12T02:10:31.303Z,0
2016-06-12T02:11:31.290Z,0
2016-06-12T02:12:31.277Z,0
2016-06-12T02:13:31.249Z,0
2016-06-12T02:14:31.236Z,0
2016-06-12T02:15:31.208Z,0
2016-06-12T02:16:31.196Z,0
2016-06-12T02:17:31.167Z,0
2016-06-12T02:18:31.155Z,0
2016-06-12T02:19:31.142Z,0
2016-06-12T02:20:31.114Z,0
2016-06-12T02:21:31.101Z,0
2016-06-12T02:22:31.090Z,0
2016-06-12T02:23:31.076Z,0
2016-06-12T02:24:31.095Z,0
2016-06-12T02:25:31.019Z,0
2016-06-12T02:26:31.008Z,0
2016-06-12T02:27:30.995Z,0
2016-06-12T02:28:30.966Z,4
2016-06-12T02:29:30.954Z,4
2016-06-12T02:30:30.926Z,4
2016-06-12T02:31:30.913Z,4
2016-06-12T02:32:30.885Z,4
2016-06-12T02:33:30.874Z,4
2016-06-12T02:34:30.844Z,4
2016-06-12T02:35:30.691Z,8
2016-06-12T02:36:30.803Z,4
2016-06-12T02:37:30.791Z,8
2016-06-12T02:38:30.779Z,8
2016-06-12T02:39:30.751Z,8
2016-06-12T02:40:30.738Z,12
2016-06-12T02:41:30.725Z,12
2016-06-12T02:42:30.697Z,12
2016-06-12T02:43:30.685Z,16
2016-06-12T02:44:30.657Z,16
2016-06-12T02:45:30.644Z,16
2016-06-12T02:46:30.631Z,20
2016-06-12T02:47:30.603Z,20
2016-06-12T02:48:30.575Z,24
2016-06-12T02:49:30.562Z,28
2016-06-12T02:50:30.800Z,32
2016-06-12T02:51:30.521Z,32
2016-06-12T02:52:30.510Z,36
2016-06-12T02:53:30.496Z,44
2016-06-12T02:54:30.468Z,48
2016-06-12T02:55:30.456Z,48
2016-06-12T02:56:30.428Z,52
2016-06-12T02:57:30.414Z,60
2016-06-12T02:58:30.387Z,64
2016-06-12T02:59:30.374Z,68
2016-06-12T03:00:30.346Z,72
2016-06-12T03:01:30.349Z,80
2016-06-12T03:02:30.321Z,88
2016-06-12T03:03:30.308Z,92
2016-06-12T03:04:30.280Z,100
2016-06-12T03:05:31.159Z,104
2016-06-12T03:06:30.239Z,116
2016-06-12T03:07:30.227Z,120
2016-06-12T03:08:30.215Z,128
2016-06-12T03:09:30.202Z,140
2016-06-12T03:10:30.189Z,148
2016-06-12T03:11:30.161Z,156
2016-06-12T03:12:30.149Z,164
2016-06-12T03:13:29.964Z,172
2016-06-12T03:14:30.108Z,180
2016-06-12T03:15:30.080Z,188
2016-06-12T03:16:30.052Z,188
2016-06-12T03:17:30.039Z,200
2016-06-12T03:18:30.026Z,204
2016-06-12T03:19:30.014Z,204
2016-06-12T03:20:30.001Z,208
2016-06-12T03:21:29.974Z,212
2016-06-12T03:22:29.944Z,216
2016-06-12T03:23:29.932Z,220
2016-06-12T03:24:29.905Z,228
2016-06-12T03:25:29.908Z,232
2016-06-12T03:26:29.879Z,240
2016-06-12T03:27:29.867Z,244
2016-06-12T03:28:29.838Z,256
2016-06-12T03:29:29.810Z,260
2016-06-12T03:30:29.799Z,268
2016-06-12T03:31:29.769Z,280
2016-06-12T03:32:29.757Z,292
2016-06-12T03:33:29.745Z,300
2016-06-12T03:34:29.732Z,312
2016-06-12T03:35:29.720Z,328
2016-06-12T03:36:29.800Z,344
2016-06-12T03:37:29.538Z,364
2016-06-12T03:38:29.635Z,388
2016-06-12T03:39:29.622Z,412
2016-06-12T03:40:29.454Z,432
2016-06-12T03:41:29.582Z,464
2016-06-12T03:42:29.570Z,496
2016-06-12T03:43:29.556Z,528
2016-06-12T03:44:29.544Z,564
2016-06-12T03:45:29.515Z,608
2016-06-12T03:46:29.487Z,656
2016-06-12T03:47:29.476Z,704
2016-06-12T03:48:29.463Z,752
2016-06-12T03:49:29.277Z,804
2016-06-12T03:50:29.266Z,856
2016-06-12T03:51:29.425Z,908
2016-06-12T03:52:29.381Z,960
2016-06-12T03:53:29.353Z,1016
2016-06-12T03:54:29.340Z,1076
2016-06-12T03:55:29.313Z,1144
2016-06-12T03:56:29.299Z,1200
2016-06-12T03:57:29.287Z,1248
2016-06-12T03:58:29.274Z,1292
2016-06-12T03:59:29.246Z,1336
2016-06-12T04:00:29.234Z,1364
2016-06-12T04:01:29.206Z,1396
2016-06-12T04:02:29.192Z,1424
2016-06-12T04:03:29.180Z,1456
2016-06-12T04:04:29.153Z,1484
2016-06-12T04:05:29.156Z,1520
2016-06-12T04:06:29.346Z,1548
2016-06-12T04:07:29.099Z,1576
2016-06-12T04:08:29.086Z,1608
2016-06-12T04:09:28.902Z,1644
2016-06-12T04:10:29.061Z,1684
2016-06-12T04:11:29.033Z,1720
2016-06-12T04:12:29.020Z,1760
2016-06-12T04:13:28.992Z,1796
2016-06-12T04:14:28.965Z,1840
2016-06-12T04:15:28.951Z,1868
2016-06-12T04:16:28.940Z,1900
2016-06-12T04:17:28.911Z,1916
2016-06-12T04:18:28.899Z,1920
2016-06-12T04:19:28.885Z,1912
2016-06-12T04:20:28.858Z,1896
2016-06-12T04:21:29.033Z,1876
2016-06-12T04:22:28.692Z,1852
2016-06-12T04:23:28.804Z,1832
2016-06-12T04:24:28.792Z,1812
2016-06-12T04:25:28.780Z,1816
2016-06-12T04:26:28.766Z,1824
2016-06-12T04:27:28.738Z,1844
2016-06-12T04:28:28.710Z,1884
2016-06-12T04:29:28.714Z,1932
2016-06-12T04:30:28.686Z,1992
2016-06-12T04:31:28.657Z,2060
2016-06-12T04:32:28.644Z,2140
2016-06-12T04:33:28.617Z,2236
2016-06-12T04:34:28.604Z,2352
2016-06-12T04:35:28.591Z,2480
2016-06-12T04:36:29.001Z,2628
2016-06-12T04:37:28.550Z,2784
2016-06-12T04:38:28.539Z,2940
2016-06-12T04:39:28.510Z,3092
2016-06-12T04:40:28.497Z,3244
2016-06-12T04:41:28.485Z,3376
2016-06-12T04:42:28.473Z,3512
2016-06-12T04:43:28.444Z,3636
2016-06-12T04:44:28.432Z,3752
2016-06-12T04:45:28.404Z,3852
2016-06-12T04:46:28.391Z,3948
2016-06-12T04:47:28.378Z,4020
2016-06-12T04:48:28.366Z,4088
2016-06-12T04:49:28.337Z,4148
2016-06-12T04:50:28.325Z,4200
2016-06-12T04:51:28.922Z,4244
2016-06-12T04:52:28.285Z,4296
2016-06-12T04:53:28.271Z,4368
2016-06-12T04:54:28.243Z,4460
2016-06-12T04:55:28.231Z,4568
2016-06-12T04:56:28.203Z,4692
2016-06-12T04:57:28.190Z,4808
2016-06-12T04:58:28.178Z,4908
2016-06-12T04:59:28.165Z,4980
2016-06-12T05:00:27.981Z,5020
2016-06-12T05:01:28.124Z,5048
2016-06-12T05:02:28.112Z,5072
2016-06-12T05:03:28.099Z,5100
2016-06-12T05:04:28.071Z,5148
2016-06-12T05:05:28.058Z,5216
2016-06-12T05:06:28.047Z,5292
2016-06-12T05:07:28.018Z,5360
2016-06-12T05:08:27.849Z,5392
2016-06-12T05:09:27.977Z,5384
2016-06-12T05:10:27.981Z,5340
2016-06-12T05:11:27.952Z,5280
2016-06-12T05:12:27.923Z,5224
2016-06-12T05:13:27.911Z,5192
2016-06-12T05:14:27.914Z,5192
2016-06-12T05:15:27.886Z,5232
2016-06-12T05:16:27.874Z,5292
2016-06-12T05:17:27.845Z,5348
2016-06-12T05:18:27.833Z,5388
2016-06-12T05:19:27.821Z,5424
2016-06-12T05:20:27.792Z,5452
2016-06-12T05:21:28.029Z,5484
2016-06-12T05:22:27.752Z,5508
2016-06-12T05:23:27.755Z,5552
2016-06-12T05:24:27.726Z,5580
2016-06-12T05:25:27.714Z,5612
2016-06-12T05:26:27.700Z,5656
2016-06-12T05:27:27.673Z,5720
2016-06-12T05:28:27.661Z,5800
2016-06-12T05:29:27.648Z,5904
2016-06-12T05:30:27.620Z,6000
2016-06-12T05:31:27.608Z,6120
2016-06-12T05:32:27.594Z,6236
2016-06-12T05:33:27.567Z,6376
2016-06-12T05:34:27.554Z,6520
2016-06-12T05:35:27.542Z,6676
2016-06-12T05:36:27.872Z,6848
2016-06-12T05:37:27.517Z,7028
2016-06-12T05:38:27.488Z,7208
2016-06-12T05:39:27.476Z,7384
2016-06-12T05:40:27.463Z,7540
2016-06-12T05:41:27.451Z,7636
2016-06-12T05:42:27.422Z,7692
2016-06-12T05:43:27.410Z,7736
2016-06-12T05:44:27.381Z,7756
2016-06-12T05:45:27.369Z,7820
2016-06-12T05:46:27.356Z,7916
2016-06-12T05:47:27.328Z,8056
2016-06-12T05:48:27.315Z,8248
2016-06-12T05:49:27.303Z,8524
2016-06-12T05:50:27.274Z,8812
2016-06-12T05:51:27.700Z,9140
2016-06-12T05:52:27.250Z,9436
2016-06-12T05:53:27.238Z,9724
2016-06-12T05:54:27.225Z,9992
2016-06-12T05:55:27.212Z,10240
2016-06-12T05:56:27.184Z,10396
2016-06-12T05:57:27.171Z,10576
2016-06-12T05:58:27.160Z,10712
2016-06-12T05:59:27.131Z,10880
2016-06-12T06:00:27.134Z,11056
2016-06-12T06:01:27.106Z,11256
2016-06-12T06:02:27.093Z,11452
2016-06-12T06:03:27.065Z,11644
2016-06-12T06:04:27.052Z,11792
2016-06-12T06:05:27.040Z,11956
2016-06-12T06:06:27.839Z,12088
2016-06-12T06:07:27.015Z,12248
2016-06-12T06:08:26.987Z,12412
2016-06-12T06:09:26.974Z,12588
2016-06-12T06:10:26.961Z,12780
2016-06-12T06:11:26.933Z,12980
2016-06-12T06:12:26.921Z,13188
2016-06-12T06:13:26.908Z,13400
2016-06-12T06:14:26.895Z,13600
2016-06-12T06:15:26.884Z,13748
2016-06-12T06:16:26.854Z,13840
2016-06-12T06:17:26.857Z,13948
2016-06-12T06:18:26.830Z,14032
2016-06-12T06:19:26.818Z,14104
2016-06-12T06:20:26.805Z,14200
2016-06-12T06:21:27.057Z,14376
2016-06-12T06:22:26.764Z,14648
2016-06-12T06:23:26.751Z,14968
2016-06-12T06:24:26.739Z,15356
2016-06-12T06:25:26.726Z,15868
2016-06-12T06:26:26.715Z,16428
2016-06-12T06:27:26.685Z,16968
2016-06-12T06:28:26.673Z,17664
2016-06-12T06:29:26.661Z,18272
2016-06-12T06:30:26.633Z,18688
2016-06-12T06:31:26.620Z,19072
2016-06-12T06:32:26.622Z,19520
2016-06-12T06:33:26.595Z,19872
2016-06-12T06:34:26.582Z,20160
2016-06-12T06:35:26.569Z,20448
2016-06-12T06:36:27.963Z,20800
2016-06-12T06:37:26.873Z,21152
2016-06-12T06:38:26.532Z,21568
2016-06-12T06:39:26.504Z,22048
2016-06-12T06:40:26.508Z,22496
2016-06-12T06:41:26.479Z,22944
2016-06-12T06:42:26.466Z,23328
2016-06-12T06:43:26.454Z,23776
2016-06-12T06:44:26.440Z,24256
2016-06-12T06:45:26.429Z,24736
2016-06-12T06:46:26.416Z,25280
2016-06-12T06:47:26.404Z,25952
2016-06-12T06:48:26.391Z,26496
2016-06-12T06:49:26.377Z,26880
2016-06-12T06:50:26.350Z,26912
2016-06-12T06:51:26.337Z,26944
2016-06-12T06:52:26.325Z,29088
2016-06-12T06:53:26.312Z,28160
2016-06-12T06:54:26.300Z,26176
2016-06-12T06:55:26.287Z,25856
2016-06-12T06:56:26.274Z,25536
2016-06-12T06:57:26.263Z,25088
2016-06-12T06:58:26.266Z,24704
2016-06-12T06:59:26.252Z,24512
2016-06-12T07:00:26.225Z,23936
2016-06-12T07:01:26.056Z,23616
2016-06-12T07:02:26.200Z,23008
2016-06-12T07:03:26.187Z,22272
2016-06-12T07:04:26.174Z,21728
2016-06-12T07:05:26.162Z,21248
2016-06-12T07:06:27.133Z,21024
2016-06-12T07:07:27.075Z,20864
2016-06-12T07:08:26.125Z,20832
2016-06-12T07:09:26.112Z,20896
2016-06-12T07:10:26.099Z,21056
2016-06-12T07:11:26.087Z,21280
2016-06-12T07:12:26.074Z,21568
2016-06-12T07:13:26.077Z,21984
2016-06-12T07:14:26.048Z,22400
2016-06-12T07:15:26.036Z,22912
2016-06-12T07:16:26.039Z,23456
2016-06-12T07:17:26.027Z,24032
2016-06-12T07:18:25.999Z,24576
2016-06-12T07:19:26.017Z,25120
2016-06-12T07:20:25.989Z,25632
2016-06-12T07:21:26.211Z,26080
2016-06-12T07:22:26.276Z,26496
2016-06-12T07:23:25.952Z,26912
2016-06-12T07:24:25.939Z,27360
2016-06-12T07:25:25.926Z,27776
2016-06-12T07:26:25.899Z,28224
2016-06-12T07:27:25.744Z,28608
2016-06-12T07:28:25.872Z,28992
2016-06-12T07:29:25.861Z,29280
2016-06-12T07:30:25.848Z,29472
2016-06-12T07:31:25.851Z,29504
2016-06-12T07:32:25.838Z,29440
2016-06-12T07:33:25.826Z,29280
2016-06-12T07:34:25.813Z,29024
2016-06-12T07:35:25.801Z,28672
2016-06-12T07:36:25.632Z,28256
2016-06-12T07:37:25.775Z,27872
2016-06-12T07:38:25.764Z,27488
2016-06-12T07:39:25.751Z,27040
2016-06-12T07:40:25.582Z,26592
2016-06-12T07:41:25.726Z,26176
2016-06-12T07:42:25.713Z,25824
2016-06-12T07:43:25.701Z,25504
2016-06-12T07:44:25.688Z,25184
2016-06-12T07:45:25.675Z,24896
2016-06-12T07:46:25.522Z,24608
2016-06-12T07:47:25.666Z,24384
2016-06-12T07:48:25.669Z,24160
2016-06-12T07:49:25.640Z,24000
2016-06-12T07:50:25.628Z,23872
2016-06-12T07:51:26.068Z,23840
2016-06-12T07:52:25.946Z,23840
2016-06-12T07:53:25.591Z,23872
2016-06-12T07:54:25.578Z,23936
2016-06-12T07:55:25.566Z,24000
2016-06-12T07:56:25.569Z,24032
2016-06-12T07:57:25.540Z,24000
2016-06-12T07:58:25.528Z,24000
2016-06-12T07:59:25.515Z,24000
2016-06-12T08:00:25.518Z,24096
2016-06-12T08:01:25.506Z,24096
2016-06-12T08:02:25.494Z,24096
2016-06-12T08:03:25.480Z,24192
2016-06-12T08:04:25.469Z,24288
2016-06-12T08:05:25.455Z,24256
2016-06-12T08:06:25.286Z,24288
2016-06-12T08:07:25.587Z,24384
2016-06-12T08:08:25.417Z,24480
2016-06-12T08:09:25.406Z,24576
2016-06-12T08:10:25.393Z,24672
2016-06-12T08:11:25.412Z,24800
2016-06-12T08:12:25.368Z,24928
2016-06-12T08:13:25.355Z,25056
2016-06-12T08:14:25.186Z,25248
2016-06-12T08:15:25.330Z,25440
2016-06-12T08:16:25.317Z,25728
2016-06-12T08:17:25.305Z,26016
2016-06-12T08:18:25.151Z,26464
2016-06-12T08:19:25.280Z,27072
2016-06-12T08:20:25.267Z,27808
2016-06-12T08:21:25.271Z,28736
2016-06-12T08:22:25.258Z,29920
2016-06-12T08:23:25.245Z,31328
2016-06-12T08:24:25.233Z,33056
2016-06-12T08:25:25.220Z,35584
2016-06-12T08:26:25.209Z,38016
2016-06-12T08:27:25.195Z,40192
2016-06-12T08:28:25.182Z,42240
2016-06-12T08:29:25.171Z,43520
2016-06-12T08:30:25.173Z,44352
2016-06-12T08:31:25.145Z,44640
2016-06-12T08:32:25.132Z,45504
2016-06-12T08:33:25.119Z,47680
2016-06-12T08:34:25.123Z,48128
2016-06-12T08:35:25.110Z,48640
2016-06-12T08:36:25.098Z,49824
2016-06-12T08:37:25.695Z,46624
2016-06-12T08:38:25.073Z,43616
2016-06-12T08:39:25.060Z,42272
2016-06-12T08:40:25.047Z,41856
2016-06-12T08:41:25.035Z,41152
2016-06-12T08:42:25.039Z,41952
2016-06-12T08:43:25.026Z,42240
2016-06-12T08:44:25.013Z,41632
2016-06-12T08:45:25.001Z,39808
2016-06-12T08:46:25.003Z,38208
2016-06-12T08:47:24.990Z,33792
2016-06-12T08:48:24.979Z,31616
2016-06-12T08:49:24.966Z,29696
2016-06-12T08:50:24.953Z,28448
2016-06-12T08:51:24.956Z,27616
2016-06-12T08:52:25.100Z,27136
2016-06-12T08:53:24.947Z,26880
2016-06-12T08:54:24.920Z,26880
2016-06-12T08:55:24.923Z,26976
2016-06-12T08:56:24.909Z,27136
2016-06-12T08:57:24.897Z,27328
2016-06-12T08:58:24.885Z,27584
2016-06-12T08:59:24.872Z,27808
2016-06-12T09:00:24.858Z,28000
2016-06-12T09:01:24.862Z,28128
2016-06-12T09:02:24.725Z,28256
2016-06-12T09:03:24.837Z,28448
2016-06-12T09:04:24.825Z,28576
2016-06-12T09:05:24.812Z,28832
2016-06-12T09:06:24.815Z,29120
2016-06-12T09:07:25.037Z,29472
2016-06-12T09:08:24.791Z,29920
2016-06-12T09:09:24.777Z,30368
2016-06-12T09:10:24.765Z,30784
2016-06-12T09:11:24.753Z,31136
2016-06-12T09:12:24.755Z,31392
2016-06-12T09:13:24.727Z,31584
2016-06-12T09:14:24.732Z,31808
2016-06-12T09:15:24.759Z,32096
2016-06-12T09:16:24.787Z,32416
2016-06-12T09:17:24.816Z,32800
2016-06-12T09:18:24.688Z,32992
2016-06-12T09:19:24.871Z,33152
2016-06-12T09:20:24.889Z,33312
2016-06-12T09:21:24.719Z,33504
2016-06-12T09:22:24.971Z,33824
2016-06-12T09:23:24.896Z,34336
2016-06-12T09:24:24.897Z,35072
2016-06-12T09:25:24.889Z,36000
2016-06-12T09:26:24.882Z,36288
2016-06-12T09:27:24.874Z,37056
2016-06-12T09:28:24.867Z,40864
2016-06-12T09:29:24.875Z,40192
2016-06-12T09:30:24.865Z,38496
2016-06-12T09:31:24.853Z,37664
2016-06-12T09:32:24.844Z,36992
2016-06-12T09:33:24.832Z,36512
2016-06-12T09:34:24.821Z,36544
2016-06-12T09:35:24.810Z,35456
2016-06-12T09:36:24.814Z,34656
2016-06-12T09:37:24.802Z,33568
2016-06-12T09:38:24.789Z,32512
2016-06-12T09:39:24.779Z,31392
2016-06-12T09:40:24.766Z,31264
2016-06-12T09:41:24.754Z,31712
2016-06-12T09:42:24.758Z,32896
2016-06-12T09:43:24.745Z,34752
2016-06-12T09:44:24.749Z,36768
2016-06-12T09:45:24.736Z,39136
2016-06-12T09:46:24.708Z,41792
2016-06-12T09:47:24.711Z,46464
2016-06-12T09:48:24.698Z,49120
2016-06-12T09:49:24.686Z,49120
2016-06-12T09:50:24.689Z,49632
2016-06-12T09:51:24.771Z,49888
2016-06-12T09:52:24.664Z,53856
2016-06-12T09:53:24.651Z,54272
2016-06-12T09:54:24.639Z,54432
2016-06-12T09:55:24.627Z,51648
2016-06-12T09:56:24.629Z,50272
2016-06-12T09:57:24.616Z,49600
2016-06-12T09:58:24.604Z,49792
2016-06-12T09:59:24.607Z,48704
2016-06-12T10:00:24.595Z,49312
2016-06-12T10:01:24.582Z,46528
2016-06-12T10:02:24.570Z,43840
2016-06-12T10:03:24.573Z,42848
2016-06-12T10:04:24.576Z,41376
2016-06-12T10:05:24.672Z,40864
2016-06-12T10:06:24.551Z,39232
2016-06-12T10:07:24.600Z,38624
2016-06-12T10:08:24.525Z,39456
2016-06-12T10:09:24.529Z,38048
2016-06-12T10:10:24.516Z,36032
2016-06-12T10:11:24.518Z,34048
2016-06-12T10:12:24.507Z,32160
2016-06-12T10:13:24.494Z,30208
2016-06-12T10:14:24.482Z,28064
2016-06-12T10:15:24.469Z,25760
2016-06-12T10:16:24.472Z,23744
2016-06-12T10:17:24.459Z,21952
2016-06-12T10:18:24.447Z,20416
2016-06-12T10:19:24.294Z,19200
2016-06-12T10:20:24.437Z,18272
2016-06-12T10:21:24.440Z,17536
2016-06-12T10:22:24.647Z,16832
2016-06-12T10:23:24.728Z,15896
2016-06-12T10:24:24.247Z,15228
2016-06-12T10:25:24.391Z,14636
2016-06-12T10:26:24.237Z,14368
2016-06-12T10:27:24.365Z,14512
2016-06-12T10:28:24.353Z,14716
2016-06-12T10:29:24.356Z,15104
2016-06-12T10:30:25.249Z,15588
2016-06-12T10:31:24.331Z,16132
2016-06-12T10:32:24.319Z,16928
2016-06-12T10:33:24.306Z,17728
2016-06-12T10:34:24.293Z,18592
2016-06-12T10:35:24.281Z,19456
2016-06-12T10:36:24.268Z,20416
2016-06-12T10:37:24.365Z,21472
2016-06-12T10:38:24.493Z,22720
2016-06-12T10:39:24.246Z,24064
2016-06-12T10:40:24.218Z,25568
2016-06-12T10:41:24.205Z,27040
2016-06-12T10:42:24.208Z,28320
2016-06-12T10:43:24.196Z,29440
2016-06-12T10:44:24.167Z,30528
2016-06-12T10:45:24.155Z,31456
2016-06-12T10:46:24.142Z,32128
2016-06-12T10:47:24.129Z,32736
2016-06-12T10:48:24.118Z,33280
2016-06-12T10:49:24.105Z,33888
2016-06-12T10:50:24.092Z,34496
2016-06-12T10:51:24.096Z,35168
2016-06-12T10:52:24.005Z,35872
2016-06-12T10:53:24.866Z,36608
2016-06-12T10:54:24.058Z,37280
2016-06-12T10:55:24.045Z,38080
2016-06-12T10:56:24.032Z,39040
2016-06-12T10:57:24.004Z,40192
2016-06-12T10:58:24.008Z,41696
2016-06-12T10:59:23.995Z,44832
2016-06-12T11:00:23.982Z,44000
2016-06-12T11:01:23.969Z,44800
2016-06-12T11:02:23.958Z,50240
2016-06-12T11:03:23.945Z,45760
2016-06-12T11:04:23.931Z,47104
2016-06-12T11:05:23.998Z,50432
2016-06-12T11:06:23.907Z,52832
2016-06-12T11:07:24.144Z,58496
2016-06-12T11:08:23.601Z,66272
2016-06-12T11:09:23.885Z,63168
2016-06-12T11:10:23.872Z,64128
2016-06-12T11:11:23.860Z,66752
2016-06-12T11:12:23.706Z,58560
2016-06-12T11:13:23.850Z,48928
2016-06-12T11:14:23.682Z,48608
2016-06-12T11:15:23.826Z,48768
2016-06-12T11:16:23.829Z,46592
2016-06-12T11:17:23.816Z,44544
2016-06-12T11:18:23.803Z,44736
2016-06-12T11:19:23.791Z,41920
2016-06-12T11:20:23.794Z,43744
2016-06-12T11:21:23.781Z,48480
2016-06-12T11:22:23.644Z,54112
2016-06-12T11:23:23.772Z,60608
2016-06-12T11:24:23.759Z,54144
2016-06-12T11:25:23.746Z,53376
2016-06-12T11:26:23.734Z,66176
2016-06-12T11:27:23.737Z,59104
2016-06-12T11:28:23.724Z,59040
2016-06-12T11:29:23.728Z,51360
2016-06-12T11:30:23.558Z,46976
2016-06-12T11:31:23.702Z,44576
2016-06-12T11:32:23.550Z,44320
2016-06-12T11:33:23.693Z,45440
2016-06-12T11:34:23.681Z,45760
2016-06-12T11:35:23.684Z,44992
2016-06-12T11:36:23.687Z,44832
2016-06-12T11:37:24.597Z,45952
2016-06-12T11:38:23.662Z,41728
2016-06-12T11:39:23.665Z,37952
2016-06-12T11:40:23.668Z,34240
2016-06-12T11:41:23.639Z,30912
2016-06-12T11:42:23.642Z,27776
2016-06-12T11:43:23.630Z,24960
2016-06-12T11:44:23.633Z,22432
2016-06-12T11:45:23.715Z,20416
2016-06-12T11:46:23.452Z,18464
2016-06-12T11:47:23.611Z,16408
2016-06-12T11:48:23.599Z,14884
2016-06-12T11:49:23.602Z,13732
2016-06-12T11:50:23.573Z,12944
2016-06-12T11:51:23.576Z,12276
2016-06-12T11:52:23.564Z,11900
2016-06-12T11:53:23.568Z,11700
2016-06-12T11:54:23.539Z,11656
2016-06-12T11:55:23.527Z,11712
2016-06-12T11:56:23.530Z,11636
2016-06-12T11:57:23.516Z,11232
2016-06-12T11:58:23.347Z,10444
2016-06-12T11:59:23.492Z,9412
2016-06-12T12:00:23.479Z,8592
2016-06-12T12:01:23.467Z,7960
2016-06-12T12:02:23.454Z,7632
2016-06-12T12:03:23.442Z,7544
2016-06-12T12:04:23.429Z,7664
2016-06-12T12:05:23.432Z,8000
2016-06-12T12:06:23.404Z,8340
2016-06-12T12:07:23.391Z,8764
2016-06-12T12:08:24.003Z,9228
2016-06-12T12:09:23.366Z,9584
2016-06-12T12:10:23.370Z,9784
2016-06-12T12:11:23.341Z,9724
2016-06-12T12:12:23.328Z,9356
2016-06-12T12:13:23.301Z,8864
2016-06-12T12:14:23.304Z,8484
2016-06-12T12:15:23.291Z,8132
2016-06-12T12:16:23.264Z,7856
2016-06-12T12:17:23.250Z,7736
2016-06-12T12:18:23.409Z,7720
2016-06-12T12:19:23.226Z,7800
2016-06-12T12:20:23.213Z,7900
2016-06-12T12:21:23.201Z,7992
2016-06-12T12:22:23.172Z,8104
2016-06-12T12:23:23.191Z,8224
2016-06-12T12:24:23.146Z,8352
2016-06-12T12:25:22.978Z,8472
2016-06-12T12:26:23.122Z,8556
2016-06-12T12:27:23.108Z,8540
2016-06-12T12:28:23.097Z,8420
2016-06-12T12:29:23.068Z,8240
2016-06-12T12:30:23.056Z,8076
2016-06-12T12:31:23.044Z,7952
2016-06-12T12:32:23.031Z,7860
2016-06-12T12:33:23.019Z,7820
2016-06-12T12:34:22.991Z,7828
2016-06-12T12:35:22.977Z,7848
2016-06-12T12:36:22.964Z,7880
2016-06-12T12:37:22.952Z,7964
2016-06-12T12:38:23.205Z,8088
2016-06-12T12:39:22.943Z,8240
2016-06-12T12:40:22.899Z,8404
2016-06-12T12:41:22.886Z,8580
2016-06-12T12:42:22.874Z,8800
2016-06-12T12:43:22.861Z,9068
2016-06-12T12:44:22.850Z,9336
2016-06-12T12:45:22.821Z,9560
2016-06-12T12:46:22.808Z,9740
2016-06-12T12:47:22.795Z,9904
2016-06-12T12:48:22.767Z,10084
2016-06-12T12:49:22.771Z,10332
2016-06-12T12:50:22.743Z,10644
2016-06-12T12:51:22.715Z,11000
2016-06-12T12:52:22.702Z,11304
2016-06-12T12:53:22.705Z,11520
2016-06-12T12:54:22.677Z,11660
2016-06-12T12:55:22.664Z,11820
2016-06-12T12:56:22.651Z,12040
2016-06-12T12:57:22.639Z,12424
2016-06-12T12:58:22.611Z,12924
2016-06-12T12:59:22.615Z,13476
2016-06-12T13:00:22.585Z,14056
2016-06-12T13:01:22.574Z,14580
2016-06-12T13:02:22.561Z,15020
2016-06-12T13:03:22.547Z,15300
2016-06-12T13:04:22.519Z,15372
2016-06-12T13:05:22.508Z,15292
2016-06-12T13:06:22.494Z,15024
2016-06-12T13:07:22.482Z,14724
2016-06-12T13:08:22.798Z,14376
2016-06-12T13:09:22.441Z,13956
2016-06-12T13:10:22.288Z,13548
2016-06-12T13:11:22.417Z,13196
2016-06-12T13:12:22.247Z,12940
2016-06-12T13:13:22.407Z,12796
2016-06-12T13:14:22.394Z,12804
2016-06-12T13:15:22.366Z,12996
2016-06-12T13:16:22.353Z,13420
2016-06-12T13:17:22.341Z,14080
2016-06-12T13:18:22.329Z,14904
2016-06-12T13:19:22.301Z,15924
2016-06-12T13:20:22.288Z,17084
2016-06-12T13:21:22.275Z,18592
2016-06-12T13:22:22.263Z,20160
2016-06-12T13:23:23.188Z,22144
2016-06-12T13:24:22.223Z,24384